createdAt,value
2017-10-19T00:01:22.719Z,13.30
2017-10-19T00:03:49.113Z,13.23
2017-10-19T00:06:15.590Z,15.07
2017-10-19T00:08:42.024Z,14.30
2017-10-19T00:11:08.503Z,12.90
2017-10-19T00:13:35.028Z,14.73
2017-10-19T00:16:01.511Z,15.57
2017-10-19T00:18:28.685Z,15.07
2017-10-19T00:20:55.075Z,16.50
2017-10-19T00:23:21.539Z,15.50
2017-10-19T00:25:47.989Z,15.80
2017-10-19T00:28:14.529Z,16.40
2017-10-19T00:30:40.961Z,15.40
2017-10-19T00:33:07.347Z,14.30
2017-10-19T00:35:34.554Z,15.57
2017-10-19T00:38:00.983Z,14.53
2017-10-19T00:40:27.417Z,16.50
2017-10-19T00:42:54.670Z,15.73
2017-10-19T00:45:21.114Z,15.10
2017-10-19T00:47:47.491Z,15.73
2017-10-19T00:50:13.956Z,16.80
2017-10-19T00:52:40.398Z,16.10
2017-10-19T00:55:06.842Z,15.97
2017-10-19T00:57:33.241Z,16.43
2017-10-19T00:59:59.613Z,16.47
2017-10-19T01:02:26.048Z,15.67
2017-10-19T01:04:52.482Z,15.53
2017-10-19T01:07:18.919Z,15.93
2017-10-19T01:09:45.355Z,13.90
2017-10-19T01:12:11.788Z,14.60
2017-10-19T01:14:38.222Z,14.97
2017-10-19T01:17:04.656Z,15.40
2017-10-19T01:19:31.093Z,14.73
2017-10-19T01:21:57.525Z,14.90
2017-10-19T01:24:23.960Z,14.20
2017-10-19T01:26:50.395Z,14.13
2017-10-19T01:29:16.932Z,14.20
2017-10-19T01:31:43.367Z,14.63
2017-10-19T01:34:09.746Z,14.70
2017-10-19T01:36:36.214Z,13.73
2017-10-19T01:39:02.658Z,15.33
2017-10-19T01:41:29.107Z,14.20
2017-10-19T01:43:55.541Z,13.93
2017-10-19T01:46:21.927Z,14.47
2017-10-19T01:48:48.415Z,14.10
2017-10-19T01:51:14.899Z,14.30
2017-10-19T01:53:41.385Z,14.20
2017-10-19T01:56:07.818Z,13.73
2017-10-19T01:58:34.253Z,12.67
2017-10-19T02:01:00.688Z,13.37
2017-10-19T02:03:27.076Z,14.53
2017-10-19T02:05:53.424Z,13.00
2017-10-19T02:08:19.788Z,13.50
2017-10-19T02:10:46.224Z,13.37
2017-10-19T02:13:12.603Z,13.63
2017-10-19T02:15:39.082Z,14.70
2017-10-19T02:18:05.546Z,13.00
2017-10-19T02:20:31.961Z,12.07
2017-10-19T02:22:58.405Z,14.70
2017-10-19T02:25:24.830Z,15.03
2017-10-19T02:27:51.267Z,14.57
2017-10-19T02:30:17.701Z,12.43
2017-10-19T02:32:44.136Z,12.53
2017-10-19T02:35:10.534Z,13.17
2017-10-19T02:37:36.902Z,14.40
2017-10-19T02:40:03.339Z,14.40
2017-10-19T02:42:29.776Z,13.33
2017-10-19T02:44:56.207Z,14.60
2017-10-19T02:47:22.643Z,14.57
2017-10-19T02:49:49.078Z,16.03
2017-10-19T02:52:15.517Z,17.27
2017-10-19T02:54:41.948Z,16.73
2017-10-19T02:57:08.468Z,17.23
2017-10-19T02:59:34.910Z,16.50
2017-10-19T03:02:01.355Z,16.50
2017-10-19T03:04:27.788Z,16.20
2017-10-19T03:06:54.250Z,15.30
2017-10-19T03:09:20.658Z,15.67
2017-10-19T03:11:47.093Z,14.67
2017-10-19T03:14:13.513Z,14.57
2017-10-19T03:16:39.956Z,14.70
2017-10-19T03:19:06.416Z,14.70
2017-10-19T03:21:32.832Z,15.60
2017-10-19T03:23:59.358Z,14.90
2017-10-19T03:26:25.823Z,14.63
2017-10-19T03:28:52.238Z,16.07
2017-10-19T03:31:18.675Z,17.00
2017-10-19T03:33:45.059Z,15.73
2017-10-19T03:36:11.548Z,16.40
2017-10-19T03:38:37.979Z,15.67
2017-10-19T03:41:04.373Z,14.60
2017-10-19T03:43:30.851Z,16.27
2017-10-19T03:45:57.284Z,15.90
2017-10-19T03:48:23.717Z,16.10
2017-10-19T03:50:50.153Z,15.90
2017-10-19T03:53:16.588Z,16.27
2017-10-19T03:55:43.081Z,15.33
2017-10-19T03:58:09.513Z,14.67
2017-10-19T04:00:35.971Z,15.20
2017-10-19T04:03:02.326Z,14.30
2017-10-19T04:05:28.762Z,14.20
2017-10-19T04:07:55.199Z,14.10
2017-10-19T04:10:21.631Z,15.10
2017-10-19T04:12:48.168Z,14.83
2017-10-19T04:15:14.622Z,15.50
2017-10-19T04:17:41.041Z,13.97
2017-10-19T04:20:07.474Z,14.70
2017-10-19T04:22:33.907Z,15.50
2017-10-19T04:25:00.344Z,15.17
2017-10-19T04:27:26.779Z,16.30
2017-10-19T04:29:53.212Z,13.97
2017-10-19T04:32:20.363Z,13.97
2017-10-19T04:34:46.802Z,14.70
2017-10-19T04:37:13.237Z,14.57
2017-10-19T04:39:39.668Z,15.03
2017-10-19T04:42:06.102Z,13.63
2017-10-19T04:44:32.538Z,14.70
2017-10-19T04:46:58.973Z,16.50
2017-10-19T04:49:25.408Z,17.50
2017-10-19T04:51:51.945Z,14.80
2017-10-19T04:54:18.379Z,15.60
2017-10-19T04:56:44.824Z,18.40
2017-10-19T04:59:11.249Z,17.20
2017-10-19T05:01:37.684Z,16.07
2017-10-19T05:04:04.119Z,14.57
2017-10-19T05:06:30.553Z,15.17
2017-10-19T05:08:57.090Z,17.90
2017-10-19T05:11:23.525Z,14.70
2017-10-19T05:13:49.960Z,14.43
2017-10-19T05:16:16.346Z,15.90
2017-10-19T05:18:42.827Z,17.70
2017-10-19T05:21:09.269Z,15.63
2017-10-19T05:23:35.827Z,14.67
2017-10-19T05:26:02.344Z,20.03
2017-10-19T05:28:28.774Z,16.70
2017-10-19T05:30:55.208Z,19.30
2017-10-19T05:33:21.746Z,15.60
2017-10-19T05:35:48.182Z,16.13
2017-10-19T05:38:14.616Z,15.40
2017-10-19T05:40:41.051Z,15.50
2017-10-19T05:43:07.485Z,16.70
2017-10-19T05:45:33.920Z,14.17
2017-10-19T05:48:00.356Z,14.37
2017-10-19T05:50:26.811Z,20.60
2017-10-19T05:52:53.224Z,16.80
2017-10-19T05:55:19.612Z,15.27
2017-10-19T05:57:46.084Z,15.63
2017-10-19T06:00:12.835Z,17.00
2017-10-19T06:02:39.444Z,20.23
2017-10-19T06:05:05.915Z,17.97
2017-10-19T06:07:32.860Z,15.23
2017-10-19T06:09:59.292Z,17.53
2017-10-19T06:12:25.830Z,18.77
2017-10-19T06:14:52.268Z,18.13
2017-10-19T06:17:18.722Z,15.33
2017-10-19T06:19:45.087Z,14.50
2017-10-19T06:22:11.525Z,16.30
2017-10-19T06:24:38.620Z,18.80
2017-10-19T06:27:05.261Z,18.77
2017-10-19T06:29:31.797Z,21.83
2017-10-19T06:31:58.513Z,22.57
2017-10-19T06:34:25.047Z,21.30
2017-10-19T06:36:52.226Z,19.47
2017-10-19T06:39:18.766Z,24.03
2017-10-19T06:41:45.703Z,25.30
2017-10-19T06:44:12.146Z,23.27
2017-10-19T06:46:38.536Z,23.50
2017-10-19T06:49:05.119Z,22.23
2017-10-19T06:51:31.654Z,20.90
2017-10-19T06:53:58.197Z,18.60
2017-10-19T06:56:24.937Z,18.57
2017-10-19T06:58:51.367Z,17.40
2017-10-19T07:01:17.802Z,19.20
2017-10-19T07:03:44.341Z,18.20
2017-10-19T07:06:10.774Z,17.00
2017-10-19T07:08:37.163Z,16.00
2017-10-19T07:11:03.850Z,17.90
2017-10-19T07:13:30.386Z,19.03
2017-10-19T07:15:56.822Z,19.13
2017-10-19T07:18:23.841Z,17.87
2017-10-19T07:20:50.249Z,19.10
2017-10-19T07:23:17.252Z,21.37
2017-10-19T07:25:44.203Z,28.40
2017-10-19T07:28:10.633Z,36.63
2017-10-19T07:30:37.124Z,41.90
2017-10-19T07:33:03.612Z,46.47
2017-10-19T07:35:30.245Z,49.00
2017-10-19T07:37:56.601Z,48.17
2017-10-19T07:40:23.121Z,45.80
2017-10-19T07:42:49.654Z,44.93
2017-10-19T07:45:16.119Z,38.80
2017-10-19T07:47:42.624Z,41.53
2017-10-19T07:50:09.060Z,40.17
2017-10-19T07:52:35.800Z,40.20
2017-10-19T07:55:02.237Z,39.37
2017-10-19T07:57:28.774Z,40.30
2017-10-19T07:59:55.413Z,38.57
2017-10-19T08:02:21.949Z,38.83
2017-10-19T08:04:48.355Z,34.77
2017-10-19T08:07:14.852Z,36.47
2017-10-19T08:09:41.563Z,33.87
2017-10-19T08:12:08.103Z,31.70
2017-10-19T08:14:34.530Z,32.07
2017-10-19T08:17:00.965Z,28.60
2017-10-19T08:19:27.504Z,29.33
2017-10-19T08:21:53.936Z,27.53
2017-10-19T08:24:20.328Z,26.60
2017-10-19T08:26:46.808Z,28.77
2017-10-19T08:29:13.242Z,28.17
2017-10-19T08:31:39.705Z,29.53
2017-10-19T08:34:06.324Z,26.67
2017-10-19T08:36:32.672Z,30.30
2017-10-19T08:38:59.084Z,28.40
2017-10-19T08:41:25.682Z,25.10
2017-10-19T08:43:52.100Z,25.30
2017-10-19T08:46:18.490Z,25.23
2017-10-19T08:48:45.539Z,22.70
2017-10-19T08:51:11.973Z,23.27
2017-10-19T08:53:38.641Z,23.90
2017-10-19T08:56:05.123Z,21.60
2017-10-19T08:58:32.247Z,22.40
2017-10-19T09:00:58.710Z,22.20
2017-10-19T09:03:25.111Z,21.43
2017-10-19T09:05:51.624Z,14.67
2017-10-19T09:10:57.975Z,14.97
2017-10-19T09:13:24.839Z,14.70
2017-10-19T09:15:51.273Z,15.20
2017-10-19T09:18:17.738Z,13.53
2017-10-19T09:20:44.316Z,12.97
2017-10-19T09:23:11.102Z,13.40
2017-10-19T09:25:37.496Z,13.77
2017-10-19T09:28:03.950Z,15.30
2017-10-19T09:30:30.633Z,13.30
2017-10-19T09:32:57.107Z,13.60
2017-10-19T09:35:23.682Z,11.97
2017-10-19T09:37:50.313Z,12.40
2017-10-19T09:40:16.749Z,12.03
2017-10-19T09:42:43.285Z,12.23
2017-10-19T09:45:10.543Z,10.30
2017-10-19T09:47:36.959Z,11.63
2017-10-19T09:50:04.340Z,11.13
2017-10-19T09:52:30.697Z,10.87
2017-10-19T09:54:57.311Z,11.10
2017-10-19T09:57:24.761Z,11.20
2017-10-19T09:59:51.135Z,12.50
2017-10-19T10:02:17.492Z,12.50
2017-10-19T10:04:44.066Z,11.50
2017-10-19T10:07:10.524Z,10.67
2017-10-19T10:09:37.124Z,10.80
2017-10-19T10:12:03.809Z,10.23
2017-10-19T10:14:30.837Z,11.20
2017-10-19T10:16:57.246Z,9.37
2017-10-19T10:19:23.699Z,10.70
2017-10-19T10:21:50.133Z,10.27
2017-10-19T10:24:16.875Z,12.50
2017-10-19T10:26:43.318Z,11.20
2017-10-19T10:29:09.754Z,12.30
2017-10-19T10:31:36.190Z,12.83
2017-10-19T10:34:02.656Z,12.60
2017-10-19T10:36:28.991Z,11.30
2017-10-19T10:38:55.492Z,11.60
2017-10-19T10:41:21.896Z,13.37
2017-10-19T10:43:48.661Z,13.60
2017-10-19T10:46:15.340Z,12.77
2017-10-19T10:48:41.739Z,11.60
2017-10-19T10:51:08.174Z,14.20
2017-10-19T10:53:34.819Z,12.27
2017-10-19T10:56:01.244Z,12.00
2017-10-19T10:58:27.688Z,12.33
2017-10-19T11:00:54.636Z,13.60
2017-10-19T11:03:21.568Z,11.83
2017-10-19T11:05:48.116Z,11.53
2017-10-19T11:08:14.559Z,11.30
2017-10-19T11:10:40.982Z,10.67
2017-10-19T11:13:07.521Z,11.00
2017-10-19T11:15:33.971Z,11.37
2017-10-19T11:18:02.028Z,11.77
2017-10-19T11:20:32.085Z,12.10
2017-10-19T11:22:58.585Z,11.77
2017-10-19T11:25:25.027Z,11.87
2017-10-19T11:27:51.491Z,11.13
2017-10-19T11:30:18.193Z,11.50
2017-10-19T11:32:44.571Z,10.17
2017-10-19T11:35:11.827Z,9.90
2017-10-19T11:37:38.942Z,9.53
2017-10-19T11:40:05.990Z,9.33
2017-10-19T11:42:32.416Z,8.63
2017-10-19T11:44:58.786Z,8.27
2017-10-19T11:47:25.490Z,7.37
2017-10-19T11:49:52.036Z,8.00
2017-10-19T11:52:18.565Z,8.23
2017-10-19T11:54:45.111Z,7.70
2017-10-19T11:57:11.607Z,8.40
2017-10-19T11:59:38.082Z,8.40
2017-10-19T12:02:04.619Z,8.80
2017-10-19T12:04:31.662Z,7.63
2017-10-19T12:06:58.197Z,8.30
2017-10-19T12:09:24.735Z,9.10
2017-10-19T12:11:51.451Z,9.40
2017-10-19T12:14:18.022Z,9.57
2017-10-19T12:16:44.407Z,9.30
2017-10-19T12:19:11.162Z,8.50
2017-10-19T12:21:37.626Z,8.40
2017-10-19T12:24:04.163Z,7.70
2017-10-19T12:26:31.366Z,8.63
2017-10-19T12:28:57.756Z,8.10
2017-10-19T12:31:24.223Z,7.37
2017-10-19T12:33:50.810Z,8.17
2017-10-19T12:36:17.257Z,7.37
2017-10-19T12:38:43.693Z,7.57
2017-10-19T12:41:10.333Z,6.50
2017-10-19T12:43:36.878Z,7.60
2017-10-19T12:46:03.309Z,8.00
2017-10-19T12:48:29.742Z,6.53
2017-10-19T12:50:56.175Z,6.70
2017-10-19T12:53:22.947Z,6.00
2017-10-19T12:55:49.393Z,5.77
2017-10-19T12:58:16.048Z,7.00
2017-10-19T13:00:42.816Z,6.53
2017-10-19T13:03:09.550Z,6.73
2017-10-19T13:05:36.000Z,7.47
2017-10-19T13:08:02.419Z,8.20
2017-10-19T13:10:29.394Z,9.70
2017-10-19T13:12:55.952Z,8.10
2017-10-19T13:15:22.674Z,6.57
2017-10-19T13:17:49.110Z,7.37
2017-10-19T13:20:15.542Z,7.50
2017-10-19T13:22:42.910Z,7.37
2017-10-19T13:25:09.334Z,8.70
2017-10-19T13:27:35.769Z,8.87
2017-10-19T13:30:03.031Z,9.87
2017-10-19T13:32:29.497Z,13.30
2017-10-19T13:34:56.061Z,13.43
2017-10-19T13:37:22.533Z,14.43
2017-10-19T13:39:48.967Z,12.87
2017-10-19T13:42:15.338Z,15.40
2017-10-19T13:44:42.043Z,15.77
2017-10-19T13:47:08.477Z,16.60
2017-10-19T13:49:35.022Z,17.23
2017-10-19T13:52:01.416Z,18.93
2017-10-19T13:54:27.995Z,19.30
2017-10-19T13:56:54.738Z,18.90
2017-10-19T13:59:21.171Z,21.00
2017-10-19T14:01:47.692Z,21.63
2017-10-19T14:04:14.554Z,21.70
2017-10-19T14:06:41.975Z,26.07
2017-10-19T14:09:09.865Z,27.63
2017-10-19T14:11:37.835Z,23.73
2017-10-19T14:14:04.453Z,23.77
2017-10-19T14:16:31.429Z,24.40
2017-10-19T14:18:57.838Z,22.13
2017-10-19T14:21:24.198Z,22.83
2017-10-19T14:23:51.134Z,22.17
2017-10-19T14:26:17.578Z,20.73
2017-10-19T14:28:44.013Z,20.53
2017-10-19T14:31:11.727Z,19.20
2017-10-19T14:33:38.422Z,17.47
2017-10-19T14:36:04.920Z,22.80
2017-10-19T14:38:31.390Z,20.37
2017-10-19T14:40:57.931Z,19.87
2017-10-19T14:43:24.691Z,20.60
2017-10-19T14:45:51.134Z,19.90
2017-10-19T14:48:17.996Z,21.47
2017-10-19T14:50:44.345Z,19.80
2017-10-19T14:53:10.827Z,20.27
2017-10-19T14:55:37.364Z,20.30
2017-10-19T14:58:03.792Z,22.67
2017-10-19T15:00:30.229Z,20.37
2017-10-19T15:02:57.150Z,21.10
2017-10-19T15:05:23.716Z,25.63
2017-10-19T15:07:50.043Z,21.40
2017-10-19T15:10:16.566Z,19.20
2017-10-19T15:12:43.015Z,21.00
2017-10-19T15:15:09.551Z,23.83
2017-10-19T15:17:35.985Z,22.10
2017-10-19T15:20:03.375Z,22.10
2017-10-19T15:22:30.288Z,22.70
2017-10-19T15:24:56.623Z,24.47
2017-10-19T15:27:23.139Z,25.27
2017-10-19T15:29:49.901Z,26.43
2017-10-19T15:32:16.338Z,24.53
2017-10-19T15:34:45.443Z,25.47
2017-10-19T15:37:12.228Z,31.80
2017-10-19T15:39:38.840Z,30.23
2017-10-19T15:42:07.587Z,27.70
2017-10-19T15:44:34.552Z,26.83
2017-10-19T15:47:00.988Z,28.10
2017-10-19T15:49:27.453Z,30.67
2017-10-19T15:51:53.865Z,33.53
2017-10-19T15:54:20.300Z,30.37
2017-10-19T15:56:47.042Z,27.10
2017-10-19T15:59:13.477Z,28.80
2017-10-19T16:01:39.903Z,31.73
2017-10-19T16:04:06.346Z,31.90
2017-10-19T16:06:48.008Z,32.70
2017-10-19T16:09:16.207Z,33.33
2017-10-19T16:11:42.642Z,31.43
2017-10-19T16:14:09.046Z,32.37
2017-10-19T16:16:35.453Z,33.20
2017-10-19T16:19:01.869Z,34.90
2017-10-19T16:21:28.282Z,34.60
2017-10-19T16:23:54.775Z,34.07
2017-10-19T16:26:21.260Z,32.33
2017-10-19T16:28:47.687Z,33.30
2017-10-19T16:31:14.089Z,38.93
2017-10-19T16:33:40.657Z,37.03
2017-10-19T16:36:07.311Z,34.73
2017-10-19T16:38:34.561Z,37.53
2017-10-19T16:41:01.089Z,41.17
2017-10-19T16:43:27.634Z,37.40
2017-10-19T16:45:54.164Z,38.17
2017-10-19T16:48:20.699Z,38.47
2017-10-19T16:50:47.237Z,40.30
2017-10-19T16:53:14.184Z,41.40
2017-10-19T16:55:41.028Z,43.80
2017-10-19T16:58:07.584Z,44.00
2017-10-19T17:00:34.205Z,43.33
2017-10-19T17:03:00.640Z,44.17
2017-10-19T17:05:27.075Z,42.60
2017-10-19T17:07:53.928Z,40.00
2017-10-19T17:10:20.766Z,39.37
2017-10-19T17:12:47.738Z,38.40
2017-10-19T17:15:14.248Z,40.13
2017-10-19T17:17:40.931Z,36.87
2017-10-19T17:20:07.603Z,38.13
2017-10-19T17:22:34.329Z,34.83
2017-10-19T17:25:00.988Z,34.90
2017-10-19T17:27:27.547Z,36.70
2017-10-19T17:29:54.598Z,39.10
2017-10-19T17:32:21.155Z,36.93
2017-10-19T17:34:47.569Z,34.97
2017-10-19T17:37:14.257Z,35.57
2017-10-19T17:39:40.885Z,35.70
2017-10-19T17:42:07.362Z,37.27
2017-10-19T17:44:34.239Z,36.80
2017-10-19T17:47:01.225Z,36.00
2017-10-19T17:49:27.611Z,33.93
2017-10-19T17:51:53.982Z,32.83
2017-10-19T17:54:20.519Z,33.17
2017-10-19T17:56:46.916Z,31.50
2017-10-19T17:59:13.351Z,31.50
2017-10-19T18:01:39.788Z,30.40
2017-10-19T18:04:06.938Z,32.10
2017-10-19T18:06:33.373Z,30.33
2017-10-19T18:08:59.815Z,32.73
2017-10-19T18:11:26.211Z,31.50
2017-10-19T18:13:52.692Z,31.40
2017-10-19T18:16:19.119Z,31.60
2017-10-19T18:18:45.525Z,28.10
2017-10-19T18:21:12.810Z,28.87
2017-10-19T18:23:39.255Z,28.93
2017-10-19T18:26:05.671Z,27.40
2017-10-19T18:28:32.617Z,29.50
2017-10-19T18:30:59.028Z,28.60
2017-10-19T18:33:25.487Z,31.27
2017-10-19T18:35:51.893Z,30.20
2017-10-19T18:38:19.078Z,28.30
2017-10-19T18:40:45.509Z,32.80
2017-10-19T18:43:11.943Z,31.07
2017-10-19T18:45:38.399Z,27.70
2017-10-19T18:48:04.760Z,29.63
2017-10-19T18:50:31.259Z,28.50
2017-10-19T18:52:57.702Z,28.00
2017-10-19T18:55:24.834Z,26.07
2017-10-19T18:57:51.203Z,29.07
2017-10-19T19:00:17.704Z,26.80
2017-10-19T19:02:44.138Z,28.00
2017-10-19T19:05:10.581Z,27.27
2017-10-19T19:07:37.120Z,27.10
2017-10-19T19:10:03.546Z,25.77
2017-10-19T19:12:30.706Z,25.70
2017-10-19T19:14:57.234Z,26.30
2017-10-19T19:17:23.678Z,27.37
2017-10-19T19:19:50.041Z,26.97
2017-10-19T19:22:16.547Z,26.53
2017-10-19T19:24:42.911Z,25.07
2017-10-19T19:27:09.399Z,24.80
2017-10-19T19:29:36.671Z,25.90
2017-10-19T19:32:03.098Z,27.73
2017-10-19T19:34:29.542Z,26.57
2017-10-19T19:36:55.970Z,26.63
2017-10-19T19:39:22.410Z,26.70
2017-10-19T19:41:48.776Z,24.30
2017-10-19T19:44:15.114Z,23.60
2017-10-19T19:46:42.452Z,23.00
2017-10-19T19:49:08.800Z,24.77
2017-10-19T19:51:35.153Z,25.10
2017-10-19T19:54:01.633Z,25.47
2017-10-19T19:56:28.068Z,23.90
2017-10-19T19:58:54.516Z,25.77
2017-10-19T20:01:20.937Z,25.17
2017-10-19T20:03:48.183Z,25.67
2017-10-19T20:06:14.619Z,24.60
2017-10-19T20:08:41.062Z,25.20
2017-10-19T20:11:07.488Z,24.87
2017-10-19T20:13:34.128Z,25.43
2017-10-19T20:16:00.563Z,25.97
2017-10-19T20:18:26.998Z,25.33
2017-10-19T20:20:54.227Z,25.07
2017-10-19T20:23:22.766Z,25.80
2017-10-19T20:25:49.280Z,26.80
2017-10-19T20:28:15.715Z,26.60
2017-10-19T20:30:42.142Z,26.70
2017-10-19T20:33:08.518Z,26.00
2017-10-19T20:35:34.910Z,25.50
2017-10-19T20:38:01.316Z,27.37
2017-10-19T20:40:27.941Z,24.47
2017-10-19T20:42:54.315Z,23.50
2017-10-19T20:45:20.759Z,24.13
2017-10-19T20:47:47.129Z,24.30
2017-10-19T20:50:13.518Z,26.33
2017-10-19T20:52:39.889Z,26.07
2017-10-19T20:55:06.396Z,25.10
2017-10-19T20:57:32.822Z,28.20
2017-10-19T20:59:59.260Z,26.87
2017-10-19T21:02:25.693Z,27.90
2017-10-19T21:04:52.173Z,26.23
2017-10-19T21:07:18.561Z,27.40
2017-10-19T21:09:44.996Z,26.80
2017-10-19T21:12:12.253Z,26.90
2017-10-19T21:14:38.688Z,28.03
2017-10-19T21:17:05.124Z,28.73
2017-10-19T21:19:31.571Z,26.90
2017-10-19T21:21:58.100Z,26.50
2017-10-19T21:24:24.426Z,28.13
2017-10-19T21:26:50.859Z,27.10
2017-10-19T21:29:18.011Z,26.43
2017-10-19T21:31:44.446Z,25.67
2017-10-19T21:34:10.889Z,24.60
2017-10-19T21:36:37.324Z,23.47
2017-10-19T21:39:03.651Z,24.27
2017-10-19T21:41:30.108Z,24.80
2017-10-19T21:43:56.517Z,24.90
2017-10-19T21:46:23.776Z,25.03
2017-10-19T21:48:50.214Z,25.10
2017-10-19T21:51:16.634Z,23.93
2017-10-19T21:53:43.066Z,24.77
2017-10-19T21:56:09.449Z,23.13
2017-10-19T21:58:35.800Z,23.60
2017-10-19T22:01:02.283Z,23.13
2017-10-19T22:03:29.540Z,24.20
2017-10-19T22:05:56.078Z,24.67
2017-10-19T22:08:22.401Z,23.73
2017-10-19T22:10:48.836Z,24.33
2017-10-19T22:13:15.272Z,23.90
2017-10-19T22:15:41.706Z,22.77
2017-10-19T22:18:08.154Z,22.40
2017-10-19T22:20:35.382Z,23.37
2017-10-19T22:23:01.829Z,22.17
2017-10-19T22:25:28.264Z,22.73
2017-10-19T22:27:54.677Z,24.80
2017-10-19T22:30:21.135Z,23.07
2017-10-19T22:32:47.568Z,22.30
2017-10-19T22:35:14.012Z,22.90
2017-10-19T22:37:40.446Z,22.90
2017-10-19T22:40:06.881Z,24.80
2017-10-19T22:42:33.316Z,23.20
2017-10-19T22:45:00.580Z,22.73
2017-10-19T22:47:26.998Z,22.30
2017-10-19T22:49:53.439Z,21.50
2017-10-19T22:52:19.866Z,22.20
2017-10-19T22:54:46.271Z,22.13
2017-10-19T22:57:12.735Z,22.40
2017-10-19T22:59:39.108Z,23.47
2017-10-19T23:02:06.429Z,24.90
2017-10-19T23:04:32.859Z,23.60
2017-10-19T23:06:59.296Z,22.77
2017-10-19T23:09:25.699Z,22.70
2017-10-19T23:11:52.047Z,24.10
2017-10-19T23:14:18.505Z,23.60
2017-10-19T23:16:44.949Z,24.40
2017-10-19T23:19:12.091Z,24.37
2017-10-19T23:21:38.526Z,23.80
2017-10-19T23:24:04.953Z,24.57
2017-10-19T23:26:31.285Z,23.90
2017-10-19T23:28:57.728Z,23.03
2017-10-19T23:31:24.155Z,25.30
2017-10-19T23:33:50.590Z,23.07
2017-10-19T23:36:17.761Z,23.07
2017-10-19T23:38:44.139Z,23.17
2017-10-19T23:41:10.508Z,23.73
2017-10-19T23:43:36.878Z,22.87
2017-10-19T23:46:03.241Z,23.87
2017-10-19T23:48:29.710Z,23.60
2017-10-19T23:50:56.078Z,23.60
2017-10-19T23:53:23.398Z,23.33
2017-10-19T23:55:49.835Z,23.40
2017-10-19T23:58:16.220Z,23.00
